Terminal Aerodrome Forecast
Issued by NWS

Current Version | Previous Version | Text Only | Print | Product List | Glossary On
Versions: 1 2 3 4 5 6 7 8 9 10 11 12 13 14 15 16
000
FTUS46 KPDT 292135 AAA
TAFRDM
TAF AMD
KRDM 292135Z 2922/3018 32009KT P6SM VCSH FEW025 BKN035 OVC060
      TEMPO 2922/3002 6SM -SHRA BR BKN025 OVC050
     FM300300 32006KT P6SM SCT050 BKN080
     FM301200 32010G20KT P6SM SCT050=

USA.gov is the U.S. government's official web portal to all federal, state and local government web resources and services.